createdAt,value
2019-04-26T00:01:32.095Z,1.83
2019-04-26T00:03:59.416Z,1.70
2019-04-26T00:06:26.778Z,1.70
2019-04-26T00:09:03.270Z,1.60
2019-04-26T00:11:41.789Z,2.00
2019-04-26T00:14:28.720Z,1.90
2019-04-26T00:16:59.912Z,2.20
2019-04-26T00:19:27.266Z,1.70
2019-04-26T00:21:55.208Z,1.90
2019-04-26T00:24:22.464Z,1.90
2019-04-26T00:26:49.647Z,1.80
2019-04-26T00:29:17.483Z,1.70
2019-04-26T00:31:44.716Z,1.90
2019-04-26T00:34:12.467Z,1.90
2019-04-26T00:36:40.706Z,2.07
2019-04-26T00:39:07.894Z,1.80
2019-04-26T00:41:35.784Z,1.80
2019-04-26T00:44:03.103Z,2.00
2019-04-26T00:46:32.852Z,2.00
2019-04-26T00:49:03.561Z,2.00
2019-04-26T00:51:31.839Z,1.90
2019-04-26T00:53:59.433Z,2.00
2019-04-26T00:56:26.836Z,1.90
2019-04-26T00:58:54.131Z,2.10
2019-04-26T01:01:23.086Z,1.80
2019-04-26T01:03:50.279Z,2.13
2019-04-26T01:06:19.236Z,1.60
2019-04-26T01:08:46.430Z,2.17
2019-04-26T01:11:13.965Z,2.00
2019-04-26T01:13:41.402Z,1.97
2019-04-26T01:16:08.559Z,2.20
2019-04-26T01:18:36.015Z,1.90
2019-04-26T01:21:05.318Z,1.70
2019-04-26T01:23:35.761Z,2.30
2019-04-26T01:26:10.244Z,1.63
2019-04-26T01:28:43.568Z,2.10
2019-04-26T01:31:12.336Z,2.17
2019-04-26T01:33:40.216Z,2.40
2019-04-26T01:36:13.154Z,2.10
2019-04-26T01:38:36.609Z,2.20
2019-04-26T01:41:09.130Z,2.03
2019-04-26T01:43:51.860Z,2.30
2019-04-26T01:46:26.931Z,2.00
2019-04-26T01:48:58.735Z,2.67
2019-04-26T01:51:48.916Z,2.20
2019-04-26T01:54:19.877Z,2.30
2019-04-26T01:56:49.964Z,1.90
2019-04-26T01:59:18.765Z,1.90
2019-04-26T02:02:14.468Z,2.70
2019-04-26T02:04:44.647Z,2.10
2019-04-26T02:07:15.070Z,2.70
2019-04-26T02:09:42.526Z,2.43
2019-04-26T02:12:09.676Z,2.23
2019-04-26T02:14:37.234Z,2.70
2019-04-26T02:17:04.734Z,2.93
2019-04-26T02:19:32.383Z,3.10
2019-04-26T02:22:15.576Z,2.40
2019-04-26T02:24:45.207Z,2.67
2019-04-26T02:27:24.852Z,2.47
2019-04-26T02:29:52.107Z,2.47
2019-04-26T02:32:19.772Z,2.50
2019-04-26T02:34:47.330Z,2.20
2019-04-26T02:37:15.296Z,2.80
2019-04-26T02:39:42.466Z,2.40
2019-04-26T02:42:38.061Z,2.27
2019-04-26T02:46:02.977Z,2.67
2019-04-26T02:48:56.234Z,2.67
2019-04-26T02:51:34.151Z,2.63
2019-04-26T02:54:11.454Z,2.90
2019-04-26T02:56:42.602Z,2.27
2019-04-26T02:59:42.537Z,3.10
2019-04-26T03:02:18.557Z,3.00
2019-04-26T03:04:49.272Z,3.00
2019-04-26T03:07:31.466Z,2.60
2019-04-26T03:09:59.203Z,2.23
2019-04-26T03:12:30.957Z,2.90
2019-04-26T03:15:33.931Z,2.50
2019-04-26T03:18:23.540Z,3.23
2019-04-26T03:20:57.145Z,2.27
2019-04-26T03:23:45.723Z,2.80
2019-04-26T03:26:44.993Z,2.73
2019-04-26T03:29:37.456Z,2.40
2019-04-26T03:32:50.405Z,2.87
2019-04-26T03:35:23.354Z,2.53
2019-04-26T03:38:03.908Z,3.10
2019-04-26T03:40:48.758Z,2.77
2019-04-26T03:43:36.832Z,3.10
2019-04-26T03:46:22.271Z,3.30
2019-04-26T03:49:05.441Z,3.57
2019-04-26T03:51:59.358Z,3.17
2019-04-26T03:54:30.086Z,4.10
2019-04-26T03:57:17.170Z,3.73
2019-04-26T04:00:47.016Z,3.70
2019-04-26T04:03:38.248Z,4.10
2019-04-26T04:06:11.876Z,4.70
2019-04-26T04:08:48.786Z,4.03
2019-04-26T04:11:20.918Z,4.40
2019-04-26T04:14:00.054Z,5.07
2019-04-26T04:16:48.686Z,4.60
2019-04-26T04:20:14.349Z,5.07
2019-04-26T04:22:45.899Z,4.70
2019-04-26T04:25:22.188Z,4.93
2019-04-26T04:28:03.422Z,5.20
2019-04-26T04:30:50.843Z,5.17
2019-04-26T04:34:08.280Z,5.00
2019-04-26T04:36:44.520Z,5.83
2019-04-26T04:39:22.372Z,5.47
2019-04-26T04:42:39.233Z,6.20
2019-04-26T04:46:05.088Z,5.60
2019-04-26T04:49:31.049Z,5.80
2019-04-26T04:52:21.029Z,5.60
2019-04-26T04:55:05.131Z,5.57
2019-04-26T04:57:58.188Z,6.37
2019-04-26T05:01:02.547Z,5.67
2019-04-26T05:03:47.514Z,6.10
2019-04-26T05:06:38.298Z,6.07
2019-04-26T05:09:21.430Z,6.17
2019-04-26T05:12:05.100Z,6.40
2019-04-26T05:15:10.464Z,6.27
2019-04-26T05:18:01.643Z,5.90
2019-04-26T05:20:33.996Z,6.80
2019-04-26T05:23:37.163Z,6.87
2019-04-26T05:26:53.650Z,5.60
2019-04-26T05:30:10.002Z,6.20
2019-04-26T05:33:09.901Z,6.40
2019-04-26T05:35:57.312Z,6.20
2019-04-26T05:38:47.819Z,6.40
2019-04-26T05:42:34.042Z,6.67
2019-04-26T05:45:59.524Z,6.50
2019-04-26T05:48:40.667Z,6.23
2019-04-26T05:51:38.033Z,7.20
2019-04-26T05:54:48.220Z,6.50
2019-04-26T05:58:04.522Z,7.07
2019-04-26T06:01:16.220Z,6.07
2019-04-26T06:04:29.855Z,5.80
2019-04-26T06:07:16.180Z,5.77
2019-04-26T06:10:15.442Z,5.57
2019-04-26T06:13:09.664Z,5.40
2019-04-26T06:16:10.213Z,5.27
2019-04-26T06:19:21.892Z,4.53
2019-04-26T06:22:09.581Z,4.47
2019-04-26T06:24:46.154Z,4.20
2019-04-26T06:27:45.744Z,3.90
2019-04-26T06:30:19.591Z,3.73
2019-04-26T06:33:42.652Z,5.83
2019-04-26T06:36:16.755Z,4.53
2019-04-26T06:39:28.033Z,4.00
2019-04-26T06:42:59.154Z,4.63
2019-04-26T06:46:15.441Z,3.93
2019-04-26T06:49:23.146Z,4.47
2019-04-26T06:51:58.403Z,4.00
2019-04-26T06:54:56.355Z,4.30
2019-04-26T06:58:14.770Z,4.80
2019-04-26T07:01:09.056Z,4.83
2019-04-26T07:04:07.772Z,4.67
2019-04-26T07:06:44.570Z,5.10
2019-04-26T07:09:15.188Z,5.43
2019-04-26T07:12:36.868Z,4.80
2019-04-26T07:15:28.332Z,5.17
2019-04-26T07:18:29.022Z,5.03
2019-04-26T07:21:31.564Z,4.70
2019-04-26T07:24:54.678Z,4.90
2019-04-26T07:28:03.183Z,4.77
2019-04-26T07:30:47.256Z,5.20
2019-04-26T07:34:00.788Z,5.17
2019-04-26T07:37:22.347Z,5.30
2019-04-26T07:40:43.198Z,5.77
2019-04-26T07:43:55.501Z,6.40
2019-04-26T07:47:32.552Z,4.87
2019-04-26T07:51:09.418Z,5.63
2019-04-26T07:54:28.337Z,5.40
2019-04-26T08:01:36.090Z,5.90
2019-04-26T08:07:36.027Z,4.90
2019-04-26T08:10:31.976Z,5.07
2019-04-26T08:13:25.807Z,4.87
2019-04-26T08:16:23.530Z,4.80
2019-04-26T08:18:59.596Z,5.83
2019-04-26T08:21:42.593Z,4.40
2019-04-26T08:24:28.099Z,4.63
2019-04-26T08:27:29.029Z,5.30
2019-04-26T08:30:22.622Z,4.20
2019-04-26T08:33:12.816Z,5.20
2019-04-26T08:39:09.580Z,5.17
2019-04-26T08:45:13.538Z,4.60
2019-04-26T08:48:22.407Z,4.30
2019-04-26T08:51:20.526Z,4.10
2019-04-26T08:55:02.022Z,4.70
2019-04-26T08:57:43.693Z,3.40
2019-04-26T09:00:47.407Z,5.03
2019-04-26T09:03:36.543Z,3.83
2019-04-26T09:06:29.717Z,3.90
2019-04-26T09:08:59.461Z,3.83
2019-04-26T09:11:33.385Z,4.80
2019-04-26T09:14:00.471Z,4.10
2019-04-26T09:16:27.890Z,4.23
2019-04-26T09:18:59.336Z,3.80
2019-04-26T09:21:42.581Z,3.30
2019-04-26T09:24:25.118Z,4.10
2019-04-26T09:27:17.213Z,4.00
2019-04-26T09:30:12.527Z,3.43
2019-04-26T09:32:53.254Z,3.57
2019-04-26T09:35:20.816Z,3.73
2019-04-26T09:37:48.190Z,3.60
2019-04-26T09:40:21.518Z,3.43
2019-04-26T09:43:10.592Z,3.83
2019-04-26T09:45:55.334Z,3.00
2019-04-26T09:48:28.434Z,3.27
2019-04-26T09:50:56.018Z,3.30
2019-04-26T09:53:23.268Z,3.20
2019-04-26T09:55:50.846Z,3.23
2019-04-26T09:58:18.164Z,3.70
2019-04-26T10:00:48.510Z,3.63
2019-04-26T10:03:14.583Z,4.07
2019-04-26T10:05:41.782Z,3.27
2019-04-26T10:08:13.104Z,3.53
2019-04-26T10:10:38.809Z,4.00
2019-04-26T10:13:31.932Z,4.77
2019-04-26T10:16:13.244Z,3.30
2019-04-26T10:18:43.804Z,3.40
2019-04-26T10:21:11.086Z,4.10
2019-04-26T10:23:43.314Z,3.80
2019-04-26T10:26:11.205Z,3.87
2019-04-26T10:28:39.714Z,3.97
2019-04-26T10:31:07.122Z,4.37
2019-04-26T10:33:36.496Z,4.30
2019-04-26T10:36:04.219Z,3.93
2019-04-26T10:38:32.533Z,3.87
2019-04-26T10:41:00.110Z,4.60
2019-04-26T10:43:40.834Z,4.57
2019-04-26T10:46:24.487Z,4.97
2019-04-26T10:48:51.341Z,3.90
2019-04-26T10:51:25.181Z,4.87
2019-04-26T10:54:01.711Z,4.40
2019-04-26T10:57:03.093Z,4.17
2019-04-26T10:59:39.892Z,3.67
2019-04-26T11:02:12.181Z,3.73
2019-04-26T11:04:41.507Z,4.27
2019-04-26T11:07:08.699Z,4.47
2019-04-26T11:09:36.801Z,4.57
2019-04-26T11:12:04.446Z,4.47
2019-04-26T11:14:34.214Z,4.30
2019-04-26T11:17:01.489Z,3.40
2019-04-26T11:19:31.908Z,4.00
2019-04-26T11:21:58.353Z,4.47
2019-04-26T11:24:26.838Z,4.40
2019-04-26T11:26:54.466Z,4.00
2019-04-26T11:29:24.987Z,3.90
2019-04-26T11:31:54.157Z,4.80
2019-04-26T11:34:23.582Z,4.30
2019-04-26T11:39:44.043Z,4.20
2019-04-26T11:42:13.149Z,3.60
2019-04-26T11:44:44.457Z,3.53
2019-04-26T11:47:13.458Z,5.33
2019-04-26T11:50:16.078Z,4.23
2019-04-26T11:52:44.608Z,4.27
2019-04-26T11:55:20.088Z,3.30
2019-04-26T11:57:55.632Z,4.20
2019-04-26T12:00:34.058Z,3.90
2019-04-26T12:03:01.477Z,3.80
2019-04-26T12:05:41.889Z,4.23
2019-04-26T12:08:12.278Z,4.77
2019-04-26T12:10:40.447Z,4.87
2019-04-26T12:13:09.055Z,4.10
2019-04-26T12:15:38.972Z,4.27
2019-04-26T12:18:09.579Z,4.70
2019-04-26T12:20:35.625Z,4.77
2019-04-26T12:23:02.854Z,4.47
2019-04-26T12:25:31.173Z,4.33
2019-04-26T12:28:01.833Z,3.20
2019-04-26T12:30:27.901Z,3.30
2019-04-26T12:32:55.330Z,3.57
2019-04-26T12:35:22.850Z,3.83
2019-04-26T12:37:50.726Z,4.10
2019-04-26T12:40:19.595Z,3.53
2019-04-26T12:42:47.587Z,3.90
2019-04-26T12:45:36.125Z,4.03
2019-04-26T12:48:07.866Z,4.10
2019-04-26T12:50:36.805Z,4.10
2019-04-26T12:53:03.534Z,3.97
2019-04-26T12:55:30.908Z,4.60
2019-04-26T12:57:58.075Z,4.00
2019-04-26T13:00:28.450Z,4.10
2019-04-26T13:02:56.153Z,4.40
2019-04-26T13:05:23.323Z,4.27
2019-04-26T13:07:52.434Z,4.53
2019-04-26T13:10:44.946Z,3.53
2019-04-26T13:13:17.566Z,3.57
2019-04-26T13:16:08.265Z,3.70
2019-04-26T13:18:35.546Z,3.77
2019-04-26T13:21:04.165Z,3.87
2019-04-26T13:23:31.643Z,3.73
2019-04-26T13:25:59.563Z,3.60
2019-04-26T13:28:28.262Z,3.77
2019-04-26T13:30:55.446Z,4.40
2019-04-26T13:33:23.254Z,4.00
2019-04-26T13:36:02.839Z,3.90
2019-04-26T13:38:20.780Z,3.60
2019-04-26T13:40:47.996Z,3.53
2019-04-26T13:43:15.758Z,3.37
2019-04-26T13:46:14.339Z,4.00
2019-04-26T13:48:49.804Z,3.70
2019-04-26T13:51:18.353Z,4.07
2019-04-26T13:53:45.867Z,4.00
2019-04-26T13:56:13.381Z,3.93
2019-04-26T13:58:40.579Z,4.27
2019-04-26T14:01:08.874Z,3.77
2019-04-26T14:03:35.956Z,4.30
2019-04-26T14:06:03.141Z,3.60
2019-04-26T14:08:30.676Z,4.50
2019-04-26T14:10:57.830Z,3.60
2019-04-26T14:13:26.112Z,3.83
2019-04-26T14:15:53.572Z,3.90
2019-04-26T14:18:20.770Z,3.93
2019-04-26T14:20:47.902Z,3.60
2019-04-26T14:23:52.869Z,3.70
2019-04-26T14:26:39.331Z,4.13
2019-04-26T14:29:04.330Z,4.03
2019-04-26T14:31:31.535Z,4.20
2019-04-26T14:34:01.150Z,4.13
2019-04-26T14:36:28.005Z,3.83
2019-04-26T14:39:05.237Z,4.70
2019-04-26T14:41:24.685Z,3.83
2019-04-26T14:43:56.720Z,4.00
2019-04-26T14:46:22.968Z,4.00
2019-04-26T14:49:00.955Z,3.50
2019-04-26T14:51:19.897Z,2.90
2019-04-26T14:53:47.085Z,3.00
2019-04-26T14:56:14.273Z,3.60
2019-04-26T14:58:42.304Z,3.37
2019-04-26T15:01:14.936Z,2.87
2019-04-26T15:03:51.508Z,2.90
2019-04-26T15:06:23.803Z,3.03
2019-04-26T15:08:52.973Z,3.27
2019-04-26T15:11:20.240Z,3.17
2019-04-26T15:13:47.486Z,2.60
2019-04-26T15:16:14.697Z,2.90
2019-04-26T15:18:42.612Z,2.47
2019-04-26T15:21:09.908Z,2.93
2019-04-26T15:23:37.178Z,2.67
2019-04-26T15:26:04.754Z,2.47
2019-04-26T15:28:33.166Z,3.23
2019-04-26T15:31:02.169Z,2.93
2019-04-26T15:33:29.488Z,2.80
2019-04-26T15:35:56.642Z,2.77
2019-04-26T15:38:24.246Z,2.83
2019-04-26T15:41:16.693Z,2.20
2019-04-26T15:44:05.623Z,2.77
2019-04-26T15:46:55.345Z,2.57
2019-04-26T15:49:53.951Z,2.37
2019-04-26T15:52:21.298Z,2.57
2019-04-26T15:54:48.475Z,2.63
2019-04-26T15:57:15.680Z,3.00
2019-04-26T15:59:43.167Z,2.37
2019-04-26T16:02:10.269Z,2.57
2019-04-26T16:04:37.411Z,2.80
2019-04-26T16:07:04.661Z,2.87
2019-04-26T16:09:32.456Z,2.70
2019-04-26T16:11:59.855Z,2.50
2019-04-26T16:14:31.134Z,2.57
2019-04-26T16:16:58.230Z,2.30
2019-04-26T16:19:26.876Z,2.67
2019-04-26T16:21:55.394Z,2.80
2019-04-26T16:24:24.077Z,2.57
2019-04-26T16:26:55.768Z,3.47
2019-04-26T16:29:46.943Z,2.57
2019-04-26T16:32:52.685Z,2.20
2019-04-26T16:35:25.388Z,2.80
2019-04-26T16:37:48.600Z,2.50
2019-04-26T16:40:15.816Z,2.80
2019-04-26T16:42:43.107Z,2.13
2019-04-26T16:45:12.208Z,2.40
2019-04-26T16:47:45.184Z,2.87
2019-04-26T16:50:08.758Z,2.70
2019-04-26T16:52:42.368Z,2.43
2019-04-26T16:55:15.290Z,2.50
2019-04-26T16:57:34.903Z,2.30
2019-04-26T17:00:04.945Z,2.10
2019-04-26T17:02:34.992Z,2.10
2019-04-26T17:07:30.265Z,2.70
2019-04-26T17:09:51.297Z,2.77
2019-04-26T17:09:59.577Z,2.10
2019-04-26T17:12:26.610Z,2.57
2019-04-26T17:14:54.128Z,2.77
2019-04-26T17:17:22.378Z,2.87
2019-04-26T17:19:49.784Z,2.97
2019-04-26T17:22:44.692Z,2.60
2019-04-26T17:25:12.553Z,2.40
2019-04-26T17:27:40.283Z,2.83
2019-04-26T17:30:13.088Z,2.87
2019-04-26T17:32:40.405Z,3.10
2019-04-26T17:35:07.727Z,3.53
2019-04-26T17:37:34.816Z,3.17
2019-04-26T17:40:02.194Z,2.63
2019-04-26T17:42:36.098Z,2.83
2019-04-26T17:45:03.966Z,3.00
2019-04-26T17:47:28.313Z,2.50
2019-04-26T17:49:57.569Z,2.90
2019-04-26T17:52:29.814Z,2.77
2019-04-26T17:54:55.324Z,5.70
2019-04-26T17:57:33.498Z,2.70
2019-04-26T17:59:51.733Z,3.00
2019-04-26T18:02:38.768Z,2.93
2019-04-26T18:04:58.072Z,2.90
2019-04-26T18:07:37.690Z,3.30
2019-04-26T18:09:46.920Z,2.90
2019-04-26T18:12:14.199Z,2.73
2019-04-26T18:14:42.529Z,2.87
2019-04-26T18:17:32.980Z,3.30
2019-04-26T18:20:20.301Z,3.00
2019-04-26T18:22:54.849Z,2.90
2019-04-26T18:25:23.451Z,2.70
2019-04-26T18:27:51.055Z,2.70
2019-04-26T18:30:18.593Z,3.30
2019-04-26T18:32:47.736Z,3.30
2019-04-26T18:35:16.849Z,3.20
2019-04-26T18:37:44.134Z,4.00
2019-04-26T18:40:11.272Z,2.97
2019-04-26T18:42:41.916Z,2.90
2019-04-26T18:45:07.777Z,3.30
2019-04-26T18:47:38.304Z,2.47
2019-04-26T18:50:06.635Z,2.80
2019-04-26T18:52:37.305Z,3.10
2019-04-26T18:55:16.969Z,2.80
2019-04-26T18:57:46.904Z,3.00
2019-04-26T19:00:26.520Z,3.70
2019-04-26T19:02:53.016Z,3.33
2019-04-26T19:05:26.982Z,4.20
2019-04-26T19:07:50.092Z,3.87
2019-04-26T19:10:19.103Z,3.93
2019-04-26T19:12:47.698Z,4.30
2019-04-26T19:15:33.634Z,3.87
2019-04-26T19:18:11.702Z,4.60
2019-04-26T19:20:46.637Z,4.90
2019-04-26T19:23:13.833Z,5.30
2019-04-26T19:25:41.428Z,4.73
2019-04-26T19:28:08.696Z,4.77
2019-04-26T19:30:39.894Z,5.10
2019-04-26T19:33:11.663Z,5.40
2019-04-26T19:35:34.873Z,5.23
2019-04-26T19:38:03.264Z,5.67
2019-04-26T19:40:30.595Z,5.20
2019-04-26T19:42:57.861Z,5.73
2019-04-26T19:46:02.630Z,5.90
2019-04-26T19:48:49.588Z,5.13
2019-04-26T19:51:33.294Z,5.60
2019-04-26T19:54:32.382Z,5.60
2019-04-26T19:57:01.046Z,5.37
2019-04-26T19:59:27.668Z,5.97
2019-04-26T20:01:57.709Z,5.90
2019-04-26T20:04:30.813Z,6.00
2019-04-26T20:06:55.323Z,6.20
2019-04-26T20:09:26.333Z,6.40
2019-04-26T20:11:58.112Z,6.10
2019-04-26T20:14:29.908Z,6.00
2019-04-26T20:16:51.975Z,6.50
2019-04-26T20:19:31.540Z,6.83
2019-04-26T20:21:49.694Z,6.60
2019-04-26T20:24:19.404Z,5.83
2019-04-26T20:26:48.682Z,7.50
2019-04-26T20:29:16.088Z,7.53
2019-04-26T20:31:58.770Z,6.90
2019-04-26T20:34:26.498Z,6.70
2019-04-26T20:36:53.993Z,6.77
2019-04-26T20:39:23.956Z,6.60
2019-04-26T20:42:01.218Z,6.87
2019-04-26T20:44:23.850Z,7.20
2019-04-26T20:46:49.571Z,7.87
2019-04-26T20:49:19.260Z,6.77
2019-04-26T20:51:47.168Z,6.50
2019-04-26T20:54:16.400Z,7.67
2019-04-26T20:56:46.259Z,7.90
2019-04-26T20:59:16.599Z,7.97
2019-04-26T21:01:45.389Z,7.80
2019-04-26T21:04:33.867Z,7.50
2019-04-26T21:06:41.568Z,7.27
2019-04-26T21:09:11.910Z,8.13
2019-04-26T21:11:39.140Z,7.33
2019-04-26T21:14:07.749Z,7.37
2019-04-26T21:16:35.486Z,7.57
2019-04-26T21:19:02.797Z,7.73
2019-04-26T21:21:32.006Z,7.67
2019-04-26T21:24:01.729Z,7.53
2019-04-26T21:26:54.449Z,8.70
2019-04-26T21:29:39.328Z,7.17
2019-04-26T21:32:16.467Z,7.03
2019-04-26T21:34:50.471Z,6.70
2019-04-26T21:37:27.236Z,5.70
2019-04-26T21:40:09.716Z,5.60
2019-04-26T21:42:37.009Z,4.93
2019-04-26T21:45:04.874Z,4.97
2019-04-26T21:47:35.148Z,4.27
2019-04-26T21:50:01.323Z,3.10
2019-04-26T21:52:29.357Z,3.10
2019-04-26T21:54:57.058Z,2.33
2019-04-26T21:57:27.759Z,2.53
2019-04-26T21:59:54.064Z,2.83
2019-04-26T22:02:23.272Z,2.33
2019-04-26T22:04:53.139Z,1.90
2019-04-26T22:07:20.384Z,2.23
2019-04-26T22:10:09.441Z,1.70
2019-04-26T22:12:35.304Z,1.70
2019-04-26T22:15:16.008Z,1.90
2019-04-26T22:17:45.817Z,1.40
2019-04-26T22:20:31.457Z,1.50
2019-04-26T22:23:21.378Z,1.87
2019-04-26T22:25:50.246Z,1.80
2019-04-26T22:28:17.418Z,1.60
2019-04-26T22:30:44.659Z,1.53
2019-04-26T22:33:13.195Z,1.57
2019-04-26T22:35:40.371Z,1.50
2019-04-26T22:38:07.557Z,1.97
2019-04-26T22:40:34.879Z,2.00
2019-04-26T22:43:22.934Z,1.83
2019-04-26T22:46:26.269Z,1.80
2019-04-26T22:48:47.595Z,2.07
2019-04-26T22:51:14.833Z,1.90
2019-04-26T22:53:43.365Z,2.50
2019-04-26T22:56:10.629Z,2.70
2019-04-26T22:58:37.796Z,2.60
2019-04-26T23:01:06.230Z,3.00
2019-04-26T23:03:36.507Z,2.90
2019-04-26T23:06:03.619Z,2.70
2019-04-26T23:08:35.230Z,3.50
2019-04-26T23:11:02.448Z,3.40
2019-04-26T23:13:58.027Z,4.33
2019-04-26T23:17:03.722Z,4.03
2019-04-26T23:19:43.613Z,3.73
2019-04-26T23:22:10.805Z,3.93
2019-04-26T23:24:37.986Z,3.90
2019-04-26T23:27:05.132Z,5.07
2019-04-26T23:29:33.648Z,6.37
2019-04-26T23:32:03.496Z,8.50
2019-04-26T23:34:30.574Z,8.30
2019-04-26T23:36:58.033Z,9.10
2019-04-26T23:39:25.235Z,9.67
2019-04-26T23:41:53.984Z,9.37
2019-04-26T23:44:23.076Z,9.40
2019-04-26T23:46:54.942Z,10.80
2019-04-26T23:49:20.503Z,11.67
2019-04-26T23:51:47.760Z,11.40
2019-04-26T23:54:15.237Z,11.93
2019-04-26T23:56:43.819Z,10.70
2019-04-26T23:59:14.931Z,10.37
